< < Back
Terminal Aerodrome Forecast


Current Version              Previous Versions:   1  2  3  4  5  6  7  8  9  

Terminal Aerodrome Forecast

935
FTUS42 KCHS 040619 AAA
TAFCHS
TAF AMD
KCHS 040619Z 0406/0506 22007KT P6SM VCTS FEW050CB SCT250
      TEMPO 0406/0408 VRB30G50KT 2SM TSRA BKN015CB
     FM040800 23006KT P6SM SCT050 SCT250
     FM041300 26011KT P6SM FEW050
     FM041600 27012G18KT P6SM SCT050
     FM042300 21009KT P6SM FEW050 BKN250=

Latest METAR

937
SAUS80 KWBC 050200 RRB
MTRCHS
METAR KCHS 050156Z 27005KT 10SM SCT110 OVC250 23/21 A3008 RMK AO2 RAE53
SLP186 P0003 T02280206 $


USA.gov is the U.S. government's official web portal to all federal, state and local government web resources and services.